Nearby METAR Reports

 

KCXP - Carson City, Nevada, USA
Distance from station: WSW 2mi, 3km
Updated: Tue, Apr-25-2017 2:55pm PDT
Clear
Clear
 Wind from WNW
Wind: WNW 8 mph , 13 km/h
Temperature: 59°F , 15°C
Dew Point: 23°F , -5°C
Humidity: 25%
Barometer: 29.99 inHg , 1015.6 hPa
Clouds: Clear
Visibility: 10 miles , 16 km
2017/04/25 21:55 KCXP 252155Z AUTO 30007KT 10SM CLR 15/M05 A2999 RMK AO2
KRNO - Reno, Nevada, USA
Distance from station: N 21mi, 34km
Updated: Tue, Apr-25-2017 2:55pm PDT
Mostly cloudy
Mostly cloudy
 Wind from calm
Wind: Calm
Temperature: 61°F , 16°C
Dew Point: 25°F , -4°C
Humidity: 25%
Barometer: 29.97 inHg , 1014.9 hPa
Clouds: Mostly cloudy
Visibility: 10 miles , 16 km
Cloud details: Partly cloudy 9000 ft
Mostly cloudy 12000 ft
Mostly cloudy 15000 ft
Mostly cloudy 20000 ft
2017/04/25 21:55 KRNO 252155Z 00000KT 10SM SCT090 BKN120 BKN150 BKN200 16/M04 A2997 RMK AO2 SLP122 ACSL DSNT NW-NE AND SE-SW T01561044
 
KTRK - Truckee Tahoe, California, USA
Distance from station: WNW 24mi, 38km
Updated: Tue, Apr-25-2017 1:50pm PDT
NOT Current
Mostly cloudy
Mostly cloudy
 Wind from WNW
Wind: WNW 10 mph , 17 km/h
Temperature: 52°F , 11°C
Dew Point: 25°F , -4°C
Humidity: 35%
Barometer: 30.04 inHg , 1017.3 hPa
Clouds: Mostly cloudy
Visibility: 10 miles , 16 km
Cloud details: Mostly cloudy 6000 ft
2017/04/25 20:50 KTRK 252050Z 29009KT 10SM BKN060 11/M04 A3004 RMK NOSPECI
KTVL - South Lake Tahoe, California, USA
Distance from station: SW 26mi, 42km
Updated: Tue, Apr-25-2017 2:53pm PDT
Clear
Clear
 Wind from NE
Wind: NE 6 mph , 9 km/h
Temperature: 54°F , 12°C
Dew Point: 27°F , -3°C
Humidity: 35%
Barometer: 30.03 inHg , 1016.9 hPa
Clouds: Clear
Visibility: 10 miles , 16 km
2017/04/25 21:53 KTVL 252153Z AUTO 05005KT 10SM CLR 12/M03 A3003 RMK AO2 SLP148 T01171033
 
KRTS - Reno/Stead, Nevada, USA
Distance from station: NNW 34mi, 54km
Updated: Tue, Apr-25-2017 2:55pm PDT
Overcast
Overcast
 Wind from calm
Wind: Calm
Temperature: 54°F , 12°C
Dew Point: 21°F , -6°C
Humidity: 28%
Barometer: 29.99 inHg , 1015.6 hPa
Clouds: Overcast
Visibility: 10 miles , 16 km
Cloud details: Mostly cloudy 6000 ft
Overcast 8000 ft
2017/04/25 21:55 KRTS 252155Z AUTO 00000KT 10SM BKN060 OVC080 12/M06 A2999 RMK AO2
KBLU - Emigrant Gap, California, USA
Distance from station: W 54mi, 87km
Updated: Tue, Apr-25-2017 2:52pm PDT
Few Clouds
Few Clouds
 Wind from SSW
Wind: SSW 7 mph , 11 km/h
Temperature: 48°F , 9°C
Wind Chill: 45°F , 7°C
Dew Point: 39°F , 4°C
Humidity: 71%
Barometer: 30.07 inHg , 1018.3 hPa
Clouds: Few Clouds
Visibility: 10 miles , 16 km
Cloud details: Few Clouds 3000 ft
2017/04/25 21:52 KBLU 252152Z AUTO 21006KT 10SM FEW030 09/04 A3007 RMK AO2 SLP163 T00940039 TSNO
 
KNFL - Fallon Nas, Nevada, USA
Distance from station: ENE 56mi, 89km
Updated: Tue, Apr-25-2017 2:56pm PDT
Mostly cloudy
Mostly cloudy
 Wind from varies
Wind: varies 3 mph , 6 km/h
Temperature: 61°F , 16°C
Dew Point: 7°F , -14°C
Humidity: 11%
Barometer: 29.98 inHg , 1015.2 hPa
Clouds: Mostly cloudy
Visibility: 10 miles , 16 km
Cloud details: Few Clouds 6000 ft
Partly cloudy 11000 ft
Mostly cloudy 20000 ft
2017/04/25 21:56 KNFL 252156Z VRB03KT 10SM FEW060 SCT110 BKN200 16/M14 A2998 RMK AO2 SLP122 T01561139
KBAN - Bridgeport(Mcmwt, California, USA
Distance from station: S 60mi, 96km
Updated: Tue, Apr-25-2017 7:53am PDT
NOT Current

 Wind from calm
Wind: Calm
Temperature: 36°F , 2°C
Dew Point: 16°F , -9°C
Humidity: 44%
Barometer: 29.98 inHg , 1015.2 hPa
Visibility: 10 miles , 16 km
2017/04/25 14:53 KBAN 251453Z AUTO 00000KT 10SM 02/M09 A2998 RMK AO2 SLPNO T00221089 $
 
KPVF - Placerville, California, USA
Distance from station: WSW 66mi, 105km
Updated: Tue, Apr-25-2017 2:55pm PDT
Partly cloudy
Partly cloudy
 Wind from NW
Wind: NW 7 mph , 11 km/h
Temperature: 59°F , 15°C
Dew Point: 43°F , 6°C
Humidity: 55%
Barometer: 30.06 inHg , 1017.9 hPa
Clouds: Partly cloudy
Visibility: 10 miles , 16 km
Cloud details: Partly cloudy 3400 ft
2017/04/25 21:55 KPVF 252155Z AUTO 31006KT 10SM SCT034 15/06 A3006 RMK AO1
KGOO - Grass Valley, California, USA
Distance from station: W 70mi, 112km
Updated: Tue, Apr-25-2017 3:00pm PDT
Mostly cloudy
Mostly cloudy
 Wind from W
Wind: W 8 mph , 13 km/h
Temperature: 55°F , 13°C
Dew Point: 43°F , 6°C
Humidity: 63%
Barometer: 30.05 inHg , 1017.6 hPa
Clouds: Mostly cloudy
Visibility: 10 miles , 16 km
Cloud details: Few Clouds 2700 ft
Partly cloudy 3200 ft
Mostly cloudy 8500 ft
2017/04/25 22:00 KGOO 252200Z AUTO 28007KT 10SM FEW027 SCT032 BKN085 13/06 A3005 RMK AO1
 
KAUN - Auburn Muni, California, USA
Distance from station: WSW 76mi, 123km
Updated: Tue, Apr-25-2017 2:55pm PDT
Clear
Clear
 
Temperature: 63°F , 17°C
Dew Point: 45°F , 7°C
Humidity: 52%
Barometer: 30.04 inHg , 1017.3 hPa
Clouds: Clear
Visibility: 10 miles , 16 km
2017/04/25 21:55 KAUN 252155Z AUTO 10SM CLR 17/07 A3004 RMK AO1
KLOL - Lovelock, Nevada, USA
Distance from station: NE 85mi, 137km
Updated: Tue, Apr-25-2017 2:53pm PDT
Partly cloudy
Partly cloudy
 Wind from S
Wind: S 10 mph , 17 km/h
Temperature: 57°F , 14°C
Dew Point: 18°F , -8°C
Humidity: 21%
Barometer: 29.97 inHg , 1014.9 hPa
Clouds: Partly cloudy
Visibility: 10 miles , 16 km
Cloud details: Partly cloudy 11000 ft
2017/04/25 21:53 KLOL 252153Z AUTO 19009KT 10SM SCT110 14/M08 A2997 RMK AO2 SLP138 T01441078 TSNO
 
KLHM - Lincoln, California, USA
Distance from station: WSW 91mi, 146km
Updated: Tue, Apr-25-2017 2:55pm PDT
Partly cloudy
Partly cloudy
 Wind from W
Wind: W 7 mph , 11 km/h
Temperature: 68°F , 20°C
Dew Point: 37°F , 3°C
Humidity: 33%
Barometer: 30.02 inHg , 1016.6 hPa
Clouds: Partly cloudy
Visibility: 10 miles , 16 km
Cloud details: Partly cloudy 10000 ft
2017/04/25 21:55 KLHM 252155Z AUTO 26006KT 10SM SCT100 20/03 A3002 RMK AO1
KBAB - Beale Afb/Marysv, California, USA
Distance from station: W 92mi, 148km
Updated: Tue, Apr-25-2017 2:58pm PDT
Mostly cloudy
Mostly cloudy
 Wind from calm
Wind: Calm
Temperature: 70°F , 21°C
Dew Point: 43°F , 6°C
Humidity: 38%
Barometer: 30.01 inHg , 1016.3 hPa
Clouds: Mostly cloudy
Visibility: 10 miles , 16 km
Cloud details: Mostly cloudy 10000 ft
2017/04/25 21:58 KBAB 252158Z AUTO 00000KT 10SM BKN100 21/06 A3001 RMK AO2 SLP165 T02050056 $
 
KMHR - Mather Field, California, USA
Distance from station: WSW 97mi, 156km
Updated: Tue, Apr-25-2017 12:45pm PDT
NOT Current
Mostly cloudy
Mostly cloudy
 Wind from WNW
Wind: WNW 10 mph , 17 km/h
Temperature: 66°F , 19°C
Dew Point: 45°F , 7°C
Humidity: 46%
Barometer: 30.05 inHg , 1017.6 hPa
Clouds: Mostly cloudy
Visibility: 10 miles , 16 km
Cloud details: Few Clouds 12000 ft
Mostly cloudy 20000 ft
2017/04/25 19:45 KMHR 251945Z 29009KT 10SM FEW120 BKN200 19/07 A3005
KMCC - Mcclellan Afb, California, USA
Distance from station: WSW 99mi, 159km
Updated: Tue, Apr-25-2017 2:55pm PDT
Clear
Clear
 Wind from WSW
Wind: WSW 7 mph , 11 km/h
Temperature: 68°F , 20°C
Dew Point: 39°F , 4°C
Humidity: 35%
Barometer: 30.04 inHg , 1017.3 hPa
Clouds: Clear
Visibility: 10 miles , 16 km
2017/04/25 21:55 KMCC 252155Z AUTO 25006KT 10SM CLR 20/04 A3004 RMK AO2
 
KMYV - Marysville, California, USA
Distance from station: W 100mi, 161km
Updated: Tue, Apr-25-2017 2:53pm PDT
Few Clouds
Few Clouds
 Wind from varies
Wind: varies 3 mph , 6 km/h
Temperature: 70°F , 21°C
Dew Point: 46°F , 8°C
Humidity: 43%
Barometer: 30.03 inHg , 1016.9 hPa
Clouds: Few Clouds
Visibility: 10 miles , 16 km
Cloud details: Few Clouds 9500 ft
2017/04/25 21:53 KMYV 252153Z AUTO VRB03KT 10SM FEW095 21/08 A3003 RMK AO2 SLP172 T02060078